createdAt,value
2022-08-04T00:00:01.663Z,60.57
2022-08-04T00:03:02.966Z,60.55
2022-08-04T00:05:40.072Z,60.36
2022-08-04T00:08:50.038Z,60.39
2022-08-04T00:11:23.386Z,60.82
2022-08-04T00:14:02.827Z,60.66
2022-08-04T00:16:38.343Z,60.32
2022-08-04T00:19:17.617Z,60.65
2022-08-04T00:22:01.048Z,60.99
2022-08-04T00:24:30.551Z,60.72
2022-08-04T00:26:58.417Z,60.56
2022-08-04T00:29:27.636Z,60.85
2022-08-04T00:31:57.867Z,60.97
2022-08-04T00:34:28.158Z,61.00
2022-08-04T00:36:57.160Z,61.61
2022-08-04T00:39:25.977Z,62.26
2022-08-04T00:41:57.091Z,61.85
2022-08-04T00:44:54.035Z,61.76
2022-08-04T00:47:30.509Z,61.34
2022-08-04T00:50:07.585Z,61.77
2022-08-04T00:52:47.477Z,61.70
2022-08-04T00:55:34.090Z,61.77
2022-08-04T00:58:26.547Z,61.45
2022-08-04T01:01:07.184Z,61.28
2022-08-04T01:04:03.833Z,61.35
2022-08-04T01:06:38.238Z,61.64
2022-08-04T01:09:23.433Z,61.71
2022-08-04T01:12:35.886Z,61.77
2022-08-04T01:15:14.814Z,61.34
2022-08-04T01:18:00.370Z,61.74
2022-08-04T01:20:34.520Z,61.75
2022-08-04T01:23:27.067Z,62.02
2022-08-04T01:26:43.538Z,62.06
2022-08-04T01:29:16.953Z,61.91
2022-08-04T01:32:06.902Z,62.69
2022-08-04T01:34:37.265Z,61.93
2022-08-04T01:37:11.006Z,62.47
2022-08-04T01:39:49.883Z,62.44
2022-08-04T01:42:31.304Z,62.14
2022-08-04T01:45:07.115Z,62.21
2022-08-04T01:47:36.626Z,62.15
2022-08-04T01:50:10.379Z,62.55
2022-08-04T01:52:39.910Z,62.77
2022-08-04T01:55:10.353Z,63.08
2022-08-04T01:57:43.068Z,62.32
2022-08-04T02:00:12.932Z,62.34
2022-08-04T02:02:41.279Z,62.65
2022-08-04T02:05:11.791Z,62.61
2022-08-04T02:08:04.426Z,63.35
2022-08-04T02:10:59.930Z,62.39
2022-08-04T02:13:36.644Z,62.07
2022-08-04T02:16:31.594Z,63.25
2022-08-04T02:19:08.268Z,63.09
2022-08-04T02:21:45.428Z,63.67
2022-08-04T02:24:15.604Z,62.94
2022-08-04T02:26:48.769Z,63.09
2022-08-04T02:29:21.616Z,62.98
2022-08-04T02:32:24.018Z,63.77
2022-08-04T02:34:55.366Z,63.86
2022-08-04T02:37:24.886Z,64.35
2022-08-04T02:39:54.263Z,64.76
2022-08-04T02:42:21.942Z,64.49
2022-08-04T02:44:51.712Z,64.33
2022-08-04T02:47:21.567Z,64.74
2022-08-04T02:49:51.385Z,64.55
2022-08-04T02:52:20.162Z,64.44
2022-08-04T02:54:52.141Z,64.63
2022-08-04T02:57:24.506Z,64.67
2022-08-04T03:00:13.384Z,64.85
2022-08-04T03:03:03.556Z,64.87
2022-08-04T03:06:16.114Z,65.29
2022-08-04T03:09:23.971Z,65.39
2022-08-04T03:12:19.342Z,65.50
2022-08-04T03:15:10.285Z,65.50
2022-08-04T03:17:52.552Z,64.96
2022-08-04T03:20:45.180Z,64.84
2022-08-04T03:23:18.785Z,63.71
2022-08-04T03:26:06.457Z,63.46
2022-08-04T03:29:33.160Z,63.04
2022-08-04T03:32:13.639Z,62.36
2022-08-04T03:35:02.477Z,62.61
2022-08-04T03:37:53.428Z,62.66
2022-08-04T03:40:33.623Z,62.54
2022-08-04T03:43:59.322Z,62.51
2022-08-04T03:46:21.651Z,62.44
2022-08-04T03:49:08.853Z,62.99
2022-08-04T03:52:06.173Z,62.58
2022-08-04T03:54:39.936Z,62.39
2022-08-04T03:57:32.547Z,62.39
2022-08-04T04:00:05.656Z,62.09
2022-08-04T04:02:45.862Z,62.32
2022-08-04T04:05:58.800Z,61.95
2022-08-04T04:08:49.902Z,62.50
2022-08-04T04:11:29.625Z,62.59
2022-08-04T04:14:33.624Z,62.66
2022-08-04T04:17:08.831Z,62.01
2022-08-04T04:19:59.973Z,62.00
2022-08-04T04:22:42.715Z,61.81
2022-08-04T04:25:31.454Z,61.35
2022-08-04T04:28:44.266Z,61.70
2022-08-04T04:31:11.905Z,61.02
2022-08-04T04:33:50.558Z,61.27
2022-08-04T04:36:49.483Z,60.87
2022-08-04T04:39:33.369Z,60.79
2022-08-04T04:42:18.387Z,60.88
2022-08-04T04:45:25.966Z,60.91
2022-08-04T04:48:12.347Z,61.03
2022-08-04T04:51:05.545Z,60.91
2022-08-04T04:53:48.261Z,60.81
2022-08-04T04:56:29.622Z,60.90
2022-08-04T04:58:58.046Z,60.73
2022-08-04T05:01:38.136Z,60.28
2022-08-04T05:04:08.836Z,60.21
2022-08-04T05:06:54.627Z,60.24
2022-08-04T05:09:52.420Z,60.23
2022-08-04T05:14:32.264Z,60.09
2022-08-04T05:15:15.472Z,59.83
2022-08-04T05:17:50.448Z,59.17
2022-08-04T05:20:24.663Z,60.73
2022-08-04T05:22:58.268Z,61.60
2022-08-04T05:25:55.047Z,62.57
2022-08-04T05:28:34.315Z,62.06
2022-08-04T05:31:11.257Z,60.88
2022-08-04T05:33:54.818Z,60.35
2022-08-04T05:36:41.124Z,61.09
2022-08-04T05:39:25.371Z,61.45
2022-08-04T05:41:55.172Z,62.52
2022-08-04T05:44:25.356Z,61.70
2022-08-04T05:46:58.183Z,60.30
2022-08-04T05:49:29.735Z,60.58
2022-08-04T05:52:01.809Z,60.83
2022-08-04T05:54:33.735Z,61.76
2022-08-04T05:57:04.591Z,61.28
2022-08-04T05:59:35.207Z,62.32
2022-08-04T06:02:04.887Z,61.01
2022-08-04T06:04:38.916Z,59.93
2022-08-04T06:07:07.270Z,60.28
2022-08-04T06:09:35.308Z,60.81
2022-08-04T06:12:07.375Z,61.43
2022-08-04T06:14:46.554Z,61.34
2022-08-04T06:18:33.262Z,61.33
2022-08-04T06:20:20.150Z,61.60
2022-08-04T06:22:54.483Z,61.31
2022-08-04T06:25:28.526Z,61.92
2022-08-04T06:27:57.021Z,61.95
2022-08-04T06:30:27.352Z,61.55
2022-08-04T06:33:03.368Z,61.18
2022-08-04T06:35:33.899Z,60.45
2022-08-04T06:38:03.152Z,59.57
2022-08-04T06:40:34.102Z,59.60
2022-08-04T06:43:06.710Z,59.14
2022-08-04T06:45:37.408Z,58.77
2022-08-04T06:48:06.844Z,58.27
2022-08-04T06:51:30.949Z,57.52
2022-08-04T06:53:25.696Z,57.39
2022-08-04T06:55:54.605Z,57.85
2022-08-04T06:58:23.308Z,58.08
2022-08-04T07:00:51.833Z,57.26
2022-08-04T07:03:21.628Z,56.59
2022-08-04T07:05:50.708Z,55.70
2022-08-04T07:08:19.519Z,54.79
2022-08-04T07:10:47.863Z,54.84
2022-08-04T07:13:16.007Z,54.90
2022-08-04T07:15:45.846Z,54.78
2022-08-04T07:18:14.003Z,54.69
2022-08-04T07:20:46.287Z,54.25
2022-08-04T07:23:17.645Z,53.65
2022-08-04T07:25:59.422Z,53.56
2022-08-04T07:28:30.908Z,52.91
2022-08-04T07:30:59.033Z,52.44
2022-08-04T07:33:27.829Z,52.78
2022-08-04T07:36:05.661Z,52.58
2022-08-04T07:38:48.626Z,52.14
2022-08-04T07:41:40.689Z,51.77
2022-08-04T07:44:09.648Z,50.58
2022-08-04T07:46:37.626Z,49.17
2022-08-04T07:49:06.109Z,49.01
2022-08-04T07:51:35.554Z,47.47
2022-08-04T07:54:05.414Z,48.13
2022-08-04T07:56:36.574Z,46.75
2022-08-04T07:59:04.905Z,47.11
2022-08-04T08:01:35.347Z,46.74
2022-08-04T08:04:06.609Z,45.98
2022-08-04T08:06:42.698Z,45.67
2022-08-04T08:09:16.439Z,45.82
2022-08-04T08:12:37.270Z,45.73
2022-08-04T08:14:38.033Z,45.59
2022-08-04T08:17:05.971Z,45.15
2022-08-04T08:19:37.033Z,45.10
2022-08-04T08:22:05.404Z,44.11
2022-08-04T08:24:37.262Z,44.76
2022-08-04T08:27:06.899Z,43.91
2022-08-04T08:29:35.514Z,43.52
2022-08-04T08:32:08.490Z,44.16
2022-08-04T08:34:38.860Z,44.09
2022-08-04T08:37:16.355Z,43.75
2022-08-04T08:39:52.891Z,43.58
2022-08-04T08:42:29.760Z,43.93
2022-08-04T08:45:17.856Z,43.93
2022-08-04T08:48:13.170Z,44.22
2022-08-04T08:51:02.168Z,43.99
2022-08-04T08:53:29.823Z,43.85
2022-08-04T08:56:32.348Z,42.10
2022-08-04T08:59:27.385Z,41.67
2022-08-04T09:02:20.093Z,41.84
2022-08-04T09:04:53.861Z,42.08
2022-08-04T09:07:21.969Z,41.94
2022-08-04T09:10:13.679Z,41.23
2022-08-04T09:13:05.171Z,38.40
2022-08-04T09:15:45.643Z,35.81
2022-08-04T09:18:32.898Z,34.05
2022-08-04T09:21:06.959Z,31.40
2022-08-04T09:23:59.107Z,29.13
2022-08-04T09:26:32.574Z,29.66
2022-08-04T09:29:18.979Z,30.22
2022-08-04T09:32:06.951Z,28.25
2022-08-04T09:35:03.108Z,24.82
2022-08-04T09:37:58.314Z,25.11
2022-08-04T09:40:52.706Z,24.65
2022-08-04T09:44:48.792Z,18.44
2022-08-04T09:46:55.749Z,19.99
2022-08-04T09:49:47.849Z,21.12
2022-08-04T09:52:46.548Z,20.31
2022-08-04T09:55:53.470Z,18.50
2022-08-04T09:58:28.885Z,15.86
2022-08-04T10:01:03.259Z,15.34
2022-08-04T10:03:35.637Z,16.06
2022-08-04T10:06:40.676Z,15.04
2022-08-04T10:09:33.766Z,14.56
2022-08-04T10:12:01.335Z,15.79
2022-08-04T10:14:41.495Z,14.66
2022-08-04T10:17:24.431Z,13.65
2022-08-04T10:20:07.862Z,14.87
2022-08-04T10:23:09.216Z,14.64
2022-08-04T10:26:06.077Z,13.80
2022-08-04T10:28:31.624Z,14.72
2022-08-04T10:31:03.725Z,14.36
2022-08-04T10:33:34.549Z,14.65
2022-08-04T10:36:06.691Z,13.76
2022-08-04T10:38:45.240Z,13.50
2022-08-04T10:41:17.147Z,13.41
2022-08-04T10:44:24.632Z,13.09
2022-08-04T10:47:02.099Z,13.42
2022-08-04T10:49:38.412Z,13.73
2022-08-04T10:52:17.440Z,13.43
2022-08-04T10:55:03.820Z,13.82
2022-08-04T10:57:37.475Z,13.45
2022-08-04T11:00:12.282Z,12.93
2022-08-04T11:02:45.418Z,12.85
2022-08-04T11:05:24.764Z,12.78
2022-08-04T11:08:10.038Z,13.52
2022-08-04T11:10:46.150Z,14.33
2022-08-04T11:13:29.474Z,14.48
2022-08-04T11:16:03.126Z,14.69
2022-08-04T11:18:45.764Z,14.94
2022-08-04T11:21:23.394Z,15.50
2022-08-04T11:24:03.628Z,16.92
2022-08-04T11:26:49.036Z,17.54
2022-08-04T11:29:24.117Z,18.38
2022-08-04T11:31:52.640Z,18.81
2022-08-04T11:34:25.310Z,20.25
2022-08-04T11:37:18.540Z,21.22
2022-08-04T11:39:52.329Z,22.10
2022-08-04T11:42:23.784Z,23.37
2022-08-04T11:45:07.080Z,22.86
2022-08-04T11:48:07.526Z,23.59
2022-08-04T11:50:39.450Z,24.62
2022-08-04T11:53:08.482Z,25.39
2022-08-04T11:56:06.898Z,26.94
2022-08-04T11:58:25.327Z,26.89
2022-08-04T12:00:59.259Z,26.84
2022-08-04T12:03:45.154Z,27.83
2022-08-04T12:06:37.479Z,27.73
2022-08-04T12:09:36.933Z,27.94
2022-08-04T12:12:17.650Z,28.42
2022-08-04T12:15:00.098Z,28.74
2022-08-04T12:17:37.045Z,29.67
2022-08-04T12:20:34.332Z,29.68
2022-08-04T12:23:16.094Z,30.08
2022-08-04T12:25:48.631Z,30.42
2022-08-04T12:28:41.362Z,31.32
2022-08-04T12:31:25.437Z,31.39
2022-08-04T12:34:07.402Z,32.51
2022-08-04T12:36:56.269Z,31.33
2022-08-04T12:39:26.241Z,31.33
2022-08-04T12:42:11.573Z,31.20
2022-08-04T12:44:41.572Z,31.99
2022-08-04T12:47:26.916Z,33.67
2022-08-04T12:50:02.622Z,32.61
2022-08-04T12:53:01.074Z,32.22
2022-08-04T12:55:31.905Z,32.56
2022-08-04T12:58:00.213Z,32.73
2022-08-04T13:00:41.353Z,33.22
2022-08-04T13:03:12.680Z,33.89
2022-08-04T13:05:41.925Z,34.92
2022-08-04T13:08:11.938Z,34.38
2022-08-04T13:10:42.934Z,34.30
2022-08-04T13:13:19.632Z,33.95
2022-08-04T13:16:02.175Z,34.26
2022-08-04T13:18:34.660Z,34.35
2022-08-04T13:21:19.469Z,34.55
2022-08-04T13:24:20.522Z,34.57
2022-08-04T13:27:14.859Z,34.71
2022-08-04T13:30:00.083Z,34.98
2022-08-04T13:32:32.361Z,34.88
2022-08-04T13:35:01.841Z,35.34
2022-08-04T13:37:35.401Z,35.89
2022-08-04T13:40:05.613Z,35.51
2022-08-04T13:42:37.541Z,36.43
2022-08-04T13:45:07.456Z,36.23
2022-08-04T13:47:38.304Z,36.58
2022-08-04T13:50:27.303Z,37.04
2022-08-04T13:52:57.265Z,35.85
2022-08-04T13:55:33.635Z,36.03
2022-08-04T13:58:09.399Z,36.25
2022-08-04T14:00:44.742Z,36.25
2022-08-04T14:03:24.229Z,36.36
2022-08-04T14:06:11.818Z,36.35
2022-08-04T14:08:52.673Z,35.95
2022-08-04T14:12:06.216Z,36.04
2022-08-04T14:14:33.984Z,35.59
2022-08-04T14:17:19.781Z,34.89
2022-08-04T14:19:53.246Z,34.24
2022-08-04T14:22:30.140Z,34.32
2022-08-04T14:25:00.805Z,34.15
2022-08-04T14:27:29.136Z,34.75
2022-08-04T14:29:57.738Z,34.81
2022-08-04T14:32:26.493Z,35.04
2022-08-04T14:34:54.546Z,33.73
2022-08-04T14:37:23.383Z,32.85
2022-08-04T14:40:18.438Z,32.19
2022-08-04T14:42:55.429Z,32.54
2022-08-04T14:45:34.355Z,33.03
2022-08-04T14:48:13.715Z,32.80
2022-08-04T14:50:46.360Z,33.25
2022-08-04T14:53:19.889Z,33.61
2022-08-04T14:55:49.762Z,33.19
2022-08-04T14:58:35.109Z,33.05
2022-08-04T15:01:12.008Z,33.23
2022-08-04T15:03:50.630Z,32.45
2022-08-04T15:06:26.492Z,32.94
2022-08-04T15:08:58.390Z,33.36
2022-08-04T15:11:26.710Z,33.80
2022-08-04T15:13:56.575Z,33.87
2022-08-04T15:16:26.952Z,33.73
2022-08-04T15:18:56.705Z,33.71
2022-08-04T15:21:28.146Z,34.15
2022-08-04T15:23:57.408Z,34.10
2022-08-04T15:26:37.140Z,33.83
2022-08-04T15:29:24.209Z,33.88
2022-08-04T15:32:07.772Z,34.27
2022-08-04T15:34:51.081Z,33.72
2022-08-04T15:37:27.512Z,33.79
2022-08-04T15:40:09.853Z,34.20
2022-08-04T15:43:15.047Z,34.48
2022-08-04T15:46:32.885Z,34.41
2022-08-04T15:48:41.937Z,34.56
2022-08-04T15:51:15.070Z,34.88
2022-08-04T15:54:01.835Z,35.31
2022-08-04T15:56:31.038Z,35.58
2022-08-04T15:58:59.017Z,35.56
2022-08-04T16:01:27.991Z,35.79
2022-08-04T16:03:59.616Z,35.79
2022-08-04T16:06:30.550Z,35.76
2022-08-04T16:08:59.563Z,35.66
2022-08-04T16:11:32.582Z,35.69
2022-08-04T16:14:00.792Z,35.50
2022-08-04T16:16:33.451Z,35.45
2022-08-04T16:19:08.490Z,35.70
2022-08-04T16:21:48.793Z,35.57
2022-08-04T16:24:35.647Z,35.74
2022-08-04T16:27:05.165Z,36.38
2022-08-04T16:29:40.321Z,36.18
2022-08-04T16:32:19.595Z,36.91
2022-08-04T16:34:55.296Z,36.48
2022-08-04T16:37:32.289Z,37.14
2022-08-04T16:40:29.791Z,37.00
2022-08-04T16:43:06.349Z,36.58
2022-08-04T16:45:58.740Z,36.70
2022-08-04T16:48:31.628Z,37.31
2022-08-04T16:51:10.162Z,37.37
2022-08-04T16:53:57.899Z,37.49
2022-08-04T16:56:34.776Z,37.41
2022-08-04T16:59:11.341Z,37.79
2022-08-04T17:01:50.025Z,37.93
2022-08-04T17:04:18.048Z,38.46
2022-08-04T17:06:46.719Z,38.45
2022-08-04T17:09:19.527Z,38.95
2022-08-04T17:11:48.489Z,39.29
2022-08-04T17:14:25.511Z,40.35
2022-08-04T17:16:56.519Z,40.12
2022-08-04T17:19:26.472Z,40.91
2022-08-04T17:22:06.005Z,43.55
2022-08-04T17:24:36.419Z,43.57
2022-08-04T17:28:18.434Z,43.78
2022-08-04T17:29:52.743Z,42.33
2022-08-04T17:32:22.622Z,41.99
2022-08-04T17:34:53.660Z,43.94
2022-08-04T17:37:40.211Z,45.06
2022-08-04T17:40:18.451Z,46.04
2022-08-04T17:44:03.676Z,47.01
2022-08-04T17:46:33.995Z,47.44
2022-08-04T17:49:10.852Z,48.38
2022-08-04T17:52:05.898Z,49.87
2022-08-04T17:54:38.934Z,50.39
2022-08-04T17:57:13.465Z,52.09
2022-08-04T17:59:56.479Z,53.24
2022-08-04T18:02:32.156Z,53.80
2022-08-04T18:05:07.698Z,54.70
2022-08-04T18:08:38.460Z,55.31
2022-08-04T18:10:41.701Z,55.56
2022-08-04T18:13:22.222Z,55.56
2022-08-04T18:16:02.642Z,54.54
2022-08-04T18:18:30.902Z,57.81
2022-08-04T18:21:03.504Z,58.88
2022-08-04T18:23:33.400Z,60.62
2022-08-04T18:26:03.520Z,60.73
2022-08-04T18:28:33.653Z,60.79
2022-08-04T18:31:02.306Z,59.46
2022-08-04T18:33:40.868Z,56.68
2022-08-04T18:36:36.693Z,56.62
2022-08-04T18:38:59.434Z,55.65
2022-08-04T18:42:00.994Z,53.82
2022-08-04T18:44:32.198Z,57.15
2022-08-04T18:47:22.469Z,59.10
2022-08-04T18:51:00.701Z,57.50
2022-08-04T18:52:42.044Z,58.21
2022-08-04T18:55:55.457Z,61.04
2022-08-04T18:58:07.378Z,61.11
2022-08-04T19:00:45.776Z,60.61
2022-08-04T19:03:16.614Z,61.18
2022-08-04T19:05:51.714Z,59.84
2022-08-04T19:08:34.967Z,58.93
2022-08-04T19:11:38.481Z,58.95
2022-08-04T19:13:58.012Z,61.40
2022-08-04T19:16:32.502Z,62.95
2022-08-04T19:19:05.534Z,62.86
2022-08-04T19:22:00.349Z,63.26
2022-08-04T19:24:32.129Z,63.01
2022-08-04T19:27:07.240Z,62.32
2022-08-04T19:29:40.632Z,62.10
2022-08-04T19:32:14.154Z,62.01
2022-08-04T19:34:47.294Z,61.73
2022-08-04T19:37:57.816Z,62.08
2022-08-04T19:40:09.605Z,61.27
2022-08-04T19:42:38.562Z,61.22
2022-08-04T19:45:10.097Z,61.36
2022-08-04T19:48:18.192Z,61.24
2022-08-04T19:50:33.238Z,61.28
2022-08-04T19:53:01.577Z,61.59
2022-08-04T19:55:37.503Z,61.74
2022-08-04T19:58:08.468Z,61.38
2022-08-04T20:00:38.036Z,61.24
2022-08-04T20:03:09.846Z,61.49
2022-08-04T20:05:54.821Z,61.15
2022-08-04T20:08:26.681Z,59.88
2022-08-04T20:10:57.967Z,59.14
2022-08-04T20:13:37.054Z,61.61
2022-08-04T20:19:00.960Z,63.41
2022-08-04T20:21:36.498Z,63.65
2022-08-04T20:24:37.725Z,64.09
2022-08-04T20:27:15.283Z,63.52
2022-08-04T20:29:46.246Z,63.27
2022-08-04T20:32:25.389Z,63.56
2022-08-04T20:34:54.859Z,63.37
2022-08-04T20:37:24.744Z,63.52
2022-08-04T20:39:55.245Z,63.09
2022-08-04T20:42:33.818Z,63.64
2022-08-04T20:45:02.521Z,63.42
2022-08-04T20:47:35.049Z,63.15
2022-08-04T20:50:05.807Z,64.00
2022-08-04T20:52:37.981Z,63.28
2022-08-04T20:55:07.423Z,63.06
2022-08-04T20:57:48.411Z,61.60
2022-08-04T21:00:29.629Z,61.51
2022-08-04T21:02:59.328Z,62.33
2022-08-04T21:05:27.412Z,63.42
2022-08-04T21:07:57.142Z,63.55
2022-08-04T21:10:25.717Z,64.43
2022-08-04T21:12:54.506Z,63.64
2022-08-04T21:15:26.236Z,64.05
2022-08-04T21:18:14.203Z,63.77
2022-08-04T21:20:43.357Z,63.95
2022-08-04T21:23:11.208Z,64.33
2022-08-04T21:25:42.739Z,63.38
2022-08-04T21:28:12.151Z,64.02
2022-08-04T21:30:54.311Z,64.43
2022-08-04T21:33:49.618Z,64.28
2022-08-04T21:36:14.646Z,63.17
2022-08-04T21:38:51.255Z,62.15
2022-08-04T21:41:25.110Z,61.64
2022-08-04T21:43:56.122Z,62.95
2022-08-04T21:46:25.462Z,63.30
2022-08-04T21:48:58.440Z,63.42
2022-08-04T21:51:59.808Z,63.83
2022-08-04T21:54:17.578Z,63.74
2022-08-04T21:56:51.627Z,64.20
2022-08-04T21:59:28.513Z,63.83
2022-08-04T22:02:01.175Z,62.99
2022-08-04T22:04:29.645Z,63.26
2022-08-04T22:07:02.669Z,61.56
2022-08-04T22:09:38.768Z,61.85
2022-08-04T22:12:11.974Z,61.78
2022-08-04T22:14:40.420Z,63.15
2022-08-04T22:17:13.894Z,64.26
2022-08-04T22:19:55.499Z,64.31
2022-08-04T22:22:28.974Z,63.69
2022-08-04T22:25:12.479Z,63.34
2022-08-04T22:28:02.926Z,63.07
2022-08-04T22:30:36.891Z,63.19
2022-08-04T22:33:08.314Z,63.11
2022-08-04T22:35:48.988Z,64.27
2022-08-04T22:38:35.831Z,63.49
2022-08-04T22:41:10.882Z,62.26
2022-08-04T22:43:40.393Z,63.52
2022-08-04T22:46:11.923Z,62.23
2022-08-04T22:48:43.378Z,61.67
2022-08-04T22:51:12.754Z,63.56
2022-08-04T22:53:48.648Z,64.08
2022-08-04T22:56:37.374Z,64.55
2022-08-04T22:59:11.190Z,64.56
2022-08-04T23:02:00.445Z,64.18
2022-08-04T23:04:30.843Z,64.59
2022-08-04T23:06:58.815Z,65.06
2022-08-04T23:09:49.997Z,64.99
2022-08-04T23:12:30.446Z,65.13
2022-08-04T23:14:59.037Z,64.27
2022-08-04T23:17:28.433Z,65.65
2022-08-04T23:19:59.278Z,65.68
2022-08-04T23:22:42.101Z,65.66
2022-08-04T23:25:15.836Z,65.09
2022-08-04T23:27:50.519Z,64.06
2022-08-04T23:30:21.756Z,64.06
2022-08-04T23:32:53.314Z,64.51
2022-08-04T23:35:22.588Z,64.99
2022-08-04T23:37:56.822Z,65.10
2022-08-04T23:40:33.181Z,63.98
2022-08-04T23:43:17.356Z,63.51
2022-08-04T23:46:03.855Z,63.32
2022-08-04T23:48:36.864Z,63.33
2022-08-04T23:51:14.229Z,63.54
2022-08-04T23:54:02.267Z,62.55
2022-08-04T23:56:33.980Z,63.61
2022-08-04T23:59:03.969Z,64.58
